Time;durP1;ratioP1;P1;durP2;ratioP2;P2;SDS_P1;SDS_P2;PMS_P1;PMS_P2;Temp;Humidity;BMP_temperature;BMP_pressure;BME280_temperature;BME280_humidity;BME280_pressure;Samples;Min_cycle;Max_cycle;Signal;HPM_P1;HPM_P2
2023/06/05 00:00:10;;;;;;;4.10;1.57;;;;;;;14.39;100.00;101195.97;700205;28;1018;-60
2023/06/05 00:00:33;;;;;;;3.75;1.70;;;;;;;14.39;100.00;101198.59;699670;28;709;-57
2023/06/05 00:00:53;;;;;;;3.33;1.70;;;;;;;14.38;100.00;101203.88;700692;28;1145;-57
2023/06/05 00:01:13;;;;;;;3.10;1.50;;;;;;;14.39;100.00;101205.63;699211;28;4397;-57
2023/06/05 00:01:35;;;;;;;3.40;1.60;;;;;;;14.37;100.00;101205.66;701057;28;875;-57
2023/06/05 00:01:55;;;;;;;4.18;2.00;;;;;;;14.37;100.00;101204.75;700461;28;1152;-57
2023/06/05 00:02:16;;;;;;;4.30;2.07;;;;;;;14.34;100.00;101202.16;699328;28;1653;-56
2023/06/05 00:02:38;;;;;;;3.43;1.67;;;;;;;14.35;100.00;101201.28;700634;28;1055;-56
2023/06/05 00:02:59;;;;;;;3.60;1.65;;;;;;;14.32;100.00;101202.19;700836;28;950;-56
2023/06/05 00:03:19;;;;;;;3.40;1.60;;;;;;;14.28;100.00;101201.34;699598;28;1481;-57
2023/06/05 00:03:43;;;;;;;2.67;1.47;;;;;;;14.34;100.00;101204.81;697461;28;1070;-56
2023/06/05 00:04:04;;;;;;;3.83;1.50;;;;;;;14.33;100.00;101203.06;696986;28;4387;-57
2023/06/05 00:04:24;;;;;;;3.38;1.40;;;;;;;14.26;100.00;101203.13;696306;28;1535;-57
2023/06/05 00:04:44;;;;;;;2.83;1.43;;;;;;;14.26;100.00;101202.25;695823;28;2000;-56
2023/06/05 00:05:08;;;;;;;3.07;1.67;;;;;;;14.30;100.00;101199.59;698128;28;936;-56
2023/06/05 00:05:29;;;;;;;3.70;1.90;;;;;;;14.36;100.00;101206.53;696348;28;1673;-56
2023/06/05 00:05:49;;;;;;;4.35;1.92;;;;;;;14.40;100.00;101213.50;698080;28;1051;-56
2023/06/05 00:06:10;;;;;;;3.28;1.70;;;;;;;14.37;100.00;101208.28;698333;28;876;-57
2023/06/05 00:06:31;;;;;;;3.23;1.67;;;;;;;14.35;100.00;101207.41;696452;28;1577;-56
2023/06/05 00:06:51;;;;;;;2.53;1.40;;;;;;;14.36;100.00;101208.25;697187;28;1013;-57
2023/06/05 00:07:11;;;;;;;3.77;1.50;;;;;;;14.41;100.00;101214.34;698663;28;4332;-56
2023/06/05 00:07:32;;;;;;;3.30;1.60;;;;;;;14.39;100.00;101211.75;699156;28;1501;-56
2023/06/05 00:07:52;;;;;;;3.80;1.80;;;;;;;14.35;100.00;101202.16;700992;28;900;-56
2023/06/05 00:08:13;;;;;;;3.28;1.58;;;;;;;14.32;100.00;101210.09;699841;28;1680;-57
2023/06/05 00:08:33;;;;;;;3.10;1.60;;;;;;;14.27;100.00;101204.00;700355;28;1117;-57
2023/06/05 00:08:54;;;;;;;2.75;1.50;;;;;;;14.25;100.00;101206.66;700364;28;1027;-56
2023/06/05 00:09:14;;;;;;;2.60;1.43;;;;;;;14.23;100.00;101208.44;696624;28;1487;-56
2023/06/05 00:09:35;;;;;;;3.00;1.50;;;;;;;14.21;100.00;101204.09;699481;28;828;-58
2023/06/05 00:09:55;;;;;;;3.07;1.60;;;;;;;14.19;100.00;101201.47;700682;28;884;-56
2023/06/05 00:10:15;;;;;;;3.70;1.60;;;;;;;14.18;100.00;101204.97;698635;28;4511;-56
2023/06/05 00:10:36;;;;;;;3.40;1.53;;;;;;;14.19;100.00;101203.22;699845;28;987;-56
2023/06/05 00:10:56;;;;;;;3.13;1.60;;;;;;;14.21;100.00;101204.94;700452;28;899;-56
2023/06/05 00:11:17;;;;;;;3.13;1.58;;;;;;;14.23;100.00;101197.91;699392;28;1616;-57
2023/06/05 00:11:37;;;;;;;3.77;1.60;;;;;;;14.27;100.00;101198.72;700542;28;1174;-56
2023/06/05 00:11:57;;;;;;;3.30;1.60;;;;;;;14.27;100.00;101198.72;700665;28;1102;-57
2023/06/05 00:12:18;;;;;;;3.13;1.50;;;;;;;14.26;100.00;101205.75;699505;28;1221;-57
2023/06/05 00:12:39;;;;;;;3.60;1.60;;;;;;;14.24;100.00;101199.63;700528;28;993;-57
2023/06/05 00:13:00;;;;;;;3.15;1.67;;;;;;;14.25;100.00;101204.00;699748;28;932;-56
2023/06/05 00:13:20;;;;;;;2.95;1.50;;;;;;;14.23;100.00;101197.03;699067;28;4270;-56
2023/06/05 00:13:40;;;;;;;3.30;1.70;;;;;;;14.22;100.00;101196.16;699650;28;1002;-57
2023/06/05 00:14:01;;;;;;;3.80;1.80;;;;;;;14.19;100.00;101204.09;701078;28;837;-57
2023/06/05 00:14:21;;;;;;;3.20;1.67;;;;;;;14.21;100.00;101201.44;699505;28;1774;-56
2023/06/05 00:14:43;;;;;;;3.47;1.70;;;;;;;14.24;100.00;101201.41;700850;28;1184;-56
2023/06/05 00:15:04;;;;;;;2.92;1.70;;;;;;;14.27;100.00;101202.25;700737;28;871;-56
2023/06/05 00:15:25;;;;;;;3.25;1.60;;;;;;;14.23;100.00;101203.19;699692;28;869;-57
2023/06/05 00:15:47;;;;;;;3.53;1.60;;;;;;;14.22;100.00;101198.81;700820;28;1015;-56
2023/06/05 00:16:07;;;;;;;4.30;1.58;;;;;;;14.25;100.00;101203.16;699920;28;4416;-56
2023/06/05 00:16:28;;;;;;;2.97;1.52;;;;;;;14.20;100.00;101200.56;698603;28;949;-56
2023/06/05 00:16:51;;;;;;;3.57;1.60;;;;;;;14.20;100.00;101204.97;700775;28;987;-57
2023/06/05 00:17:11;;;;;;;3.92;1.60;;;;;;;14.19;100.00;101205.84;700642;28;963;-56
2023/06/05 00:17:32;;;;;;;2.67;1.60;;;;;;;14.18;100.00;101202.34;697782;28;2871;-57
2023/06/05 00:17:55;;;;;;;3.10;1.50;;;;;;;14.18;100.00;101209.34;700875;28;856;-57
2023/06/05 00:18:15;;;;;;;2.67;1.60;;;;;;;14.17;100.00;101207.63;699444;28;1463;-57
2023/06/05 00:18:36;;;;;;;2.90;1.55;;;;;;;14.18;100.00;101207.59;700237;28;983;-56
2023/06/05 00:18:57;;;;;;;2.83;1.60;;;;;;;14.17;100.00;101208.50;700469;28;3047;-57
2023/06/05 00:19:17;;;;;;;4.13;1.70;;;;;;;14.16;100.00;101201.47;698210;28;4525;-56
2023/06/05 00:19:38;;;;;;;3.67;1.70;;;;;;;14.14;100.00;101204.13;697971;28;1140;-56
2023/06/05 00:19:58;;;;;;;3.27;1.60;;;;;;;14.13;100.00;101201.53;697816;28;797;-56
2023/06/05 00:20:18;;;;;;;3.50;1.65;;;;;;;14.15;100.00;101205.03;696432;28;1591;-56
2023/06/05 00:20:39;;;;;;;3.47;1.63;;;;;;;14.16;100.00;101209.38;697941;28;1064;-57
2023/06/05 00:20:59;;;;;;;3.70;1.70;;;;;;;14.16;100.00;101201.47;697471;28;975;-57
2023/06/05 00:21:20;;;;;;;3.47;1.67;;;;;;;14.17;100.00;101208.50;698862;28;1718;-57
2023/06/05 00:21:40;;;;;;;3.70;1.58;;;;;;;14.15;100.00;101202.38;701061;28;797;-57
2023/06/05 00:22:01;;;;;;;3.77;1.53;;;;;;;14.16;100.00;101204.09;701090;28;852;-56
2023/06/05 00:22:21;;;;;;;3.33;1.63;;;;;;;14.15;100.00;101205.03;697940;28;4499;-57
2023/06/05 00:22:44;;;;;;;3.63;1.70;;;;;;;14.13;100.00;101209.41;700672;28;1009;-57
2023/06/05 00:23:04;;;;;;;3.47;1.70;;;;;;;14.13;100.00;101206.78;700927;28;1164;-57
2023/06/05 00:23:25;;;;;;;4.23;1.50;;;;;;;14.12;100.00;101200.66;698954;28;1469;-57
2023/06/05 00:23:45;;;;;;;3.90;1.40;;;;;;;14.13;100.00;101206.78;700723;28;1158;-57
2023/06/05 00:24:06;;;;;;;3.70;1.43;;;;;;;14.13;100.00;101196.25;701009;28;804;-56
2023/06/05 00:24:26;;;;;;;3.88;1.60;;;;;;;14.14;100.00;101205.91;698963;28;1972;-56
2023/06/05 00:24:47;;;;;;;4.78;1.90;;;;;;;14.09;100.00;101200.66;700967;28;1498;-56
2023/06/05 00:25:07;;;;;;;4.07;1.60;;;;;;;14.15;100.00;101205.03;700092;28;4468;-57
2023/06/05 00:25:28;;;;;;;3.42;1.70;;;;;;;14.15;100.00;101205.03;697836;28;1667;-57
2023/06/05 00:25:48;;;;;;;3.17;1.60;;;;;;;14.16;100.00;101200.63;700852;28;941;-57
2023/06/05 00:26:09;;;;;;;3.50;1.50;;;;;;;14.15;100.00;101205.03;700160;28;1054;-56
2023/06/05 00:26:29;;;;;;;3.90;1.70;;;;;;;14.12;100.00;101199.78;698921;28;1495;-60
2023/06/05 00:26:50;;;;;;;3.92;1.65;;;;;;;14.08;100.00;101204.22;701204;28;871;-56
2023/06/05 00:27:10;;;;;;;3.30;1.70;;;;;;;14.04;100.00;101204.25;700735;28;1161;-57
2023/06/05 00:27:31;;;;;;;3.45;1.60;;;;;;;14.06;100.00;101205.97;698432;28;1533;-57
2023/06/05 00:27:51;;;;;;;3.53;1.57;;;;;;;14.03;100.00;101206.00;700757;28;994;-56
2023/06/05 00:28:13;;;;;;;3.30;1.65;;;;;;;14.02;100.00;101203.41;700436;28;4574;-57
2023/06/05 00:28:33;;;;;;;2.67;1.60;;;;;;;14.00;100.00;101205.16;696526;28;1525;-57
2023/06/05 00:28:54;;;;;;;3.27;1.60;;;;;;;13.98;100.00;101206.94;698075;28;926;-57
2023/06/05 00:29:14;;;;;;;2.80;1.52;;;;;;;13.96;100.00;101199.94;696314;28;1543;-57
2023/06/05 00:29:35;;;;;;;1.97;1.40;;;;;;;14.00;100.00;101197.28;697071;28;971;-56
2023/06/05 00:29:55;;;;;;;3.33;1.60;;;;;;;14.00;100.00;101205.16;698022;28;1488;-57
2023/06/05 00:30:16;;;;;;;3.60;1.50;;;;;;;14.00;100.00;101202.53;696562;28;1505;-56
2023/06/05 00:30:37;;;;;;;4.10;1.80;;;;;;;14.02;100.00;101199.00;697174;28;1280;-57
2023/06/05 00:30:57;;;;;;;3.85;1.60;;;;;;;14.03;100.00;101199.91;698165;28;867;-57
2023/06/05 00:31:21;;;;;;;4.15;1.73;;;;;;;14.04;100.00;101199.88;695142;28;4251;-56
2023/06/05 00:31:45;;;;;;;4.32;1.77;;;;;;;14.02;100.00;101203.41;694840;28;2048;-56
2023/06/05 00:32:06;;;;;;;3.72;1.70;;;;;;;14.02;100.00;101200.78;696004;28;1320;-57
2023/06/05 00:32:26;;;;;;;3.88;1.67;;;;;;;14.02;100.00;101206.88;694887;28;1779;-56
2023/06/05 00:32:46;;;;;;;3.60;1.67;;;;;;;14.03;100.00;101206.00;699174;28;809;-57
2023/06/05 00:33:08;;;;;;;3.38;1.63;;;;;;;14.03;100.00;101205.16;696698;28;1290;-56
2023/06/05 00:33:30;;;;;;;2.97;1.48;;;;;;;14.02;100.00;101203.41;694960;28;1535;-56
2023/06/05 00:33:51;;;;;;;3.03;1.60;;;;;;;14.00;100.00;101199.91;697553;28;1214;-57
2023/06/05 00:34:13;;;;;;;3.03;1.50;;;;;;;14.05;100.00;101198.09;700826;28;4592;-56
2023/06/05 00:34:33;;;;;;;3.53;1.58;;;;;;;14.07;100.00;101193.72;699488;28;2074;-57
2023/06/05 00:34:53;;;;;;;3.10;1.60;;;;;;;14.06;100.00;101202.47;701209;28;777;-56
2023/06/05 00:35:16;;;;;;;2.87;1.60;;;;;;;14.03;100.00;101203.38;700992;28;1083;-56
2023/06/05 00:35:38;;;;;;;3.47;1.67;;;;;;;14.03;100.00;101202.53;701955;28;825;-57
2023/06/05 00:35:59;;;;;;;3.17;1.63;;;;;;;14.01;100.00;101206.91;703469;28;813;-56
2023/06/05 00:36:22;;;;;;;4.83;1.90;;;;;;;13.96;100.00;101210.44;699819;28;1778;-57
2023/06/05 00:36:42;;;;;;;5.20;1.90;;;;;;;13.94;100.00;101200.84;701247;28;993;-57
2023/06/05 00:37:03;;;;;;;3.72;1.45;;;;;;;13.96;100.00;101199.94;697715;28;4398;-57
2023/06/05 00:37:24;;;;;;;3.67;1.60;;;;;;;13.95;100.00;101206.06;689592;28;1571;-58
2023/06/05 00:37:46;;;;;;;3.45;1.67;;;;;;;14.00;100.00;101211.31;691574;28;1203;-57
2023/06/05 00:38:07;;;;;;;3.30;1.70;;;;;;;14.01;100.00;101204.28;692485;28;1071;-57
2023/06/05 00:38:27;;;;;;;3.67;1.73;;;;;;;14.00;100.00;101203.41;691309;28;1626;-57
2023/06/05 00:38:48;;;;;;;2.90;1.50;;;;;;;13.99;100.00;101198.19;693650;28;916;-56
2023/06/05 00:39:08;;;;;;;3.03;1.70;;;;;;;13.95;100.00;101207.84;696542;28;1279;-57
2023/06/05 00:39:30;;;;;;;3.58;1.75;;;;;;;13.94;100.00;101203.47;700297;28;1443;-56
2023/06/05 00:39:51;;;;;;;3.20;1.60;;;;;;;13.91;100.00;101204.38;701189;28;1101;-57
2023/06/05 00:40:11;;;;;;;3.30;1.50;;;;;;;13.90;100.00;101200.03;700172;28;4525;-56
2023/06/05 00:40:32;;;;;;;2.75;1.60;;;;;;;13.90;100.00;101205.28;699704;28;1542;-57
2023/06/05 00:40:52;;;;;;;2.92;1.70;;;;;;;13.89;100.00;101200.91;698627;28;979;-56
2023/06/05 00:41:13;;;;;;;3.80;1.80;;;;;;;13.91;100.00;101208.75;695555;28;1164;-56
2023/06/05 00:41:33;;;;;;;3.85;1.70;;;;;;;13.92;100.00;101203.47;694190;28;1539;-57
2023/06/05 00:41:54;;;;;;;3.30;1.60;;;;;;;13.90;100.00;101202.66;698579;28;1068;-56
2023/06/05 00:42:17;;;;;;;3.03;1.58;;;;;;;13.89;100.00;101203.53;694863;28;1603;-57
2023/06/05 00:42:38;;;;;;;3.83;1.67;;;;;;;13.87;100.00;101205.28;695796;28;861;-57
2023/06/05 00:42:58;;;;;;;3.70;1.60;;;;;;;13.88;100.00;101201.78;693651;28;917;-57
2023/06/05 00:43:18;;;;;;;2.97;1.60;;;;;;;13.87;100.00;101205.28;693124;28;4373;-57
2023/06/05 00:43:40;;;;;;;3.53;1.60;;;;;;;13.86;100.00;101200.94;695151;28;954;-57
2023/06/05 00:44:00;;;;;;;3.00;1.60;;;;;;;13.88;100.00;101203.53;695917;28;971;-56
2023/06/05 00:44:22;;;;;;;3.47;1.70;;;;;;;13.87;100.00;101200.03;693457;28;1531;-57
2023/06/05 00:44:42;;;;;;;3.30;1.70;;;;;;;13.85;100.00;101207.06;695652;28;1971;-57
2023/06/05 00:45:03;;;;;;;3.33;1.60;;;;;;;13.85;100.00;101208.84;695702;28;888;-57
2023/06/05 00:45:23;;;;;;;3.85;1.70;;;;;;;13.91;100.00;101207.00;691067;28;1492;-56
2023/06/05 00:45:43;;;;;;;3.27;1.60;;;;;;;13.92;100.00;101203.47;692977;28;1138;-57
2023/06/05 00:46:04;;;;;;;3.60;1.67;;;;;;;13.91;100.00;101201.72;693512;28;4557;-56
2023/06/05 00:46:25;;;;;;;3.77;1.57;;;;;;;13.92;100.00;101202.63;688720;28;1524;-57
2023/06/05 00:46:48;;;;;;;3.63;1.70;;;;;;;13.90;100.00;101201.75;694976;28;833;-57
2023/06/05 00:47:09;;;;;;;2.83;1.60;;;;;;;13.89;100.00;101200.91;696268;28;1531;-56
2023/06/05 00:47:33;;;;;;;3.33;1.63;;;;;;;13.89;100.00;101200.03;694445;28;1788;-56
2023/06/05 00:47:55;;;;;;;3.38;1.63;;;;;;;13.88;100.00;101206.16;694089;28;2038;-57
2023/06/05 00:48:15;;;;;;;3.97;1.60;;;;;;;13.86;100.00;101200.94;692334;28;1356;-56
2023/06/05 00:48:36;;;;;;;3.85;1.60;;;;;;;13.85;100.00;101201.81;689959;28;1464;-57
2023/06/05 00:48:56;;;;;;;3.57;1.63;;;;;;;13.86;100.00;101205.28;688782;28;1216;-57
2023/06/05 00:49:18;;;;;;;3.22;1.73;;;;;;;13.85;100.00;101201.81;686133;28;4512;-56
2023/06/05 00:49:38;;;;;;;4.28;1.70;;;;;;;13.78;100.00;101200.13;690758;28;1107;-56
2023/06/05 00:49:59;;;;;;;3.77;1.70;;;;;;;13.80;100.00;101203.59;695570;28;904;-57
2023/06/05 00:50:23;;;;;;;4.05;1.70;;;;;;;13.79;100.00;101201.88;695644;28;1627;-57
2023/06/05 00:50:43;;;;;;;3.45;1.60;;;;;;;13.75;100.00;101205.44;694977;28;1354;-57
2023/06/05 00:51:04;;;;;;;2.90;1.73;;;;;;;13.76;100.00;101201.88;695594;28;1501;-57
2023/06/05 00:51:25;;;;;;;3.97;1.80;;;;;;;13.76;100.00;101199.25;694282;28;5354;-56
2023/06/05 00:51:46;;;;;;;4.03;1.70;;;;;;;13.80;100.00;101203.59;692530;28;1125;-57
2023/06/05 00:52:07;;;;;;;3.22;1.70;;;;;;;13.80;100.00;101206.22;691878;28;4536;-57
2023/06/05 00:52:28;;;;;;;2.88;1.58;;;;;;;13.81;100.00;101205.34;694270;28;1536;-57
2023/06/05 00:52:50;;;;;;;3.83;1.70;;;;;;;13.79;100.00;101202.75;697478;28;1305;-57
2023/06/05 00:53:10;;;;;;;3.50;1.80;;;;;;;13.77;100.00;101198.38;698638;28;892;-57
2023/06/05 00:53:34;;;;;;;3.25;1.73;;;;;;;13.75;100.00;101200.16;695687;28;1595;-57
2023/06/05 00:53:55;;;;;;;3.92;1.70;;;;;;;13.82;100.00;101201.84;701012;28;983;-57
2023/06/05 00:54:16;;;;;;;3.33;1.60;;;;;;;13.79;100.00;101202.75;698307;28;1608;-57
2023/06/05 00:54:38;;;;;;;3.55;1.70;;;;;;;13.79;100.00;101204.50;697717;28;978;-57
2023/06/05 00:55:01;;;;;;;3.20;1.60;;;;;;;13.78;100.00;101200.13;692918;28;1075;-57
2023/06/05 00:55:21;;;;;;;3.80;1.50;;;;;;;13.76;100.00;101208.03;692002;28;6236;-57
2023/06/05 00:55:42;;;;;;;3.10;1.67;;;;;;;13.75;100.00;101197.53;692617;28;1112;-56
2023/06/05 00:56:02;;;;;;;3.00;1.70;;;;;;;13.73;100.00;101197.53;693374;28;1365;-56
2023/06/05 00:56:23;;;;;;;3.28;1.70;;;;;;;13.73;100.00;101207.19;694244;28;1469;-57
2023/06/05 00:56:45;;;;;;;3.63;1.70;;;;;;;13.72;100.00;101205.44;695386;28;1239;-57
2023/06/05 00:57:07;;;;;;;3.25;1.60;;;;;;;13.71;100.00;101198.47;690027;28;1181;-57
2023/06/05 00:57:28;;;;;;;3.30;1.65;;;;;;;13.71;100.00;101198.47;691387;28;952;-57
2023/06/05 00:57:48;;;;;;;2.93;1.73;;;;;;;13.72;100.00;101202.81;693249;28;1496;-57
2023/06/05 00:58:09;;;;;;;3.10;1.55;;;;;;;13.73;100.00;101201.94;695258;28;4549;-57
2023/06/05 00:58:31;;;;;;;2.95;1.50;;;;;;;13.72;100.00;101200.19;693666;28;923;-57
2023/06/05 00:58:53;;;;;;;4.25;1.73;;;;;;;13.76;100.00;101196.63;695397;28;1081;-57
2023/06/05 00:59:14;;;;;;;5.10;1.80;;;;;;;13.83;100.00;101203.59;698520;28;1282;-57
2023/06/05 00:59:36;;;;;;;3.78;1.63;;;;;;;13.76;100.00;101201.88;695960;28;1468;-57
2023/06/05 00:59:57;;;;;;;3.53;1.80;;;;;;;13.77;100.00;101203.63;698653;28;967;-57
2023/06/05 01:00:18;;;;;;;3.58;1.70;;;;;;;13.70;100.00;101197.56;698277;28;1647;-57
2023/06/05 01:00:38;;;;;;;4.55;1.77;;;;;;;13.68;100.00;101198.47;695976;28;1217;-57
2023/06/05 01:01:03;;;;;;;3.33;1.63;;;;;;;13.65;100.00;101201.97;695084;28;1412;-56
2023/06/05 01:01:25;;;;;;;3.75;1.70;;;;;;;13.64;100.00;101195.00;690924;28;6543;-56
2023/06/05 01:01:47;;;;;;;3.75;1.70;;;;;;;13.62;100.00;101194.13;692811;28;935;-57
2023/06/05 01:02:07;;;;;;;3.15;1.88;;;;;;;13.61;100.00;101193.28;693629;28;909;-57
2023/06/05 01:02:28;;;;;;;3.20;1.80;;;;;;;13.66;100.00;101197.63;694704;28;1472;-57
2023/06/05 01:02:52;;;;;;;2.93;1.50;;;;;;;13.73;100.00;101204.56;692947;28;1285;-57
2023/06/05 01:03:16;;;;;;;3.58;2.10;;;;;;;13.71;100.00;101193.19;693611;28;1439;-57
2023/06/05 01:03:39;;;;;;;4.28;1.90;;;;;;;13.67;100.00;101196.75;694685;28;2038;-56
2023/06/05 01:04:02;;;;;;;5.30;1.85;;;;;;;13.62;100.00;101194.13;696406;28;919;-56
2023/06/05 01:04:23;;;;;;;4.82;1.80;;;;;;;13.60;100.00;101190.66;692481;28;4862;-56
2023/06/05 01:04:44;;;;;;;3.75;1.70;;;;;;;13.60;100.00;101195.91;698941;28;1981;-57
2023/06/05 01:05:04;;;;;;;3.37;1.80;;;;;;;13.67;100.00;101200.22;699907;28;911;-56
2023/06/05 01:05:26;;;;;;;2.97;1.70;;;;;;;13.66;100.00;101201.09;696148;28;1503;-56
2023/06/05 01:05:49;;;;;;;5.57;1.80;;;;;;;13.61;100.00;101193.28;697279;28;746;-57
2023/06/05 01:06:11;;;;;;;5.22;2.20;;;;;;;13.59;100.00;101195.03;697713;28;865;-56
2023/06/05 01:06:34;;;;;;;4.43;1.80;;;;;;;13.57;100.00;101193.31;699534;28;955;-56
2023/06/05 01:07:00;;;;;;;4.05;1.70;;;;;;;13.59;100.00;101195.03;701178;28;1059;-56
2023/06/05 01:07:21;;;;;;;4.32;1.73;;;;;;;13.54;100.00;101198.59;697661;28;4382;-57
2023/06/05 01:07:41;;;;;;;4.20;1.95;;;;;;;13.55;100.00;101197.69;701563;28;833;-56
2023/06/05 01:08:03;;;;;;;4.60;2.00;;;;;;;13.55;100.00;101189.81;697488;28;1740;-56
2023/06/05 01:08:24;;;;;;;3.55;1.90;;;;;;;13.54;100.00;101194.22;693714;28;1011;-56
2023/06/05 01:08:46;;;;;;;3.78;1.67;;;;;;;13.54;100.00;101185.44;695766;28;1058;-56
2023/06/05 01:09:10;;;;;;;4.72;1.83;;;;;;;13.55;100.00;101197.69;696168;28;844;-56
2023/06/05 01:09:30;;;;;;;4.15;2.00;;;;;;;13.56;100.00;101194.19;695244;28;1044;-57
2023/06/05 01:09:51;;;;;;;3.73;1.80;;;;;;;13.56;100.00;101197.69;696954;28;1221;-57
2023/06/05 01:10:11;;;;;;;3.10;1.60;;;;;;;13.55;100.00;101201.19;696414;28;4515;-57
2023/06/05 01:10:32;;;;;;;4.33;1.93;;;;;;;13.55;100.00;101193.31;697013;28;946;-57
2023/06/05 01:10:57;;;;;;;3.83;1.88;;;;;;;13.53;100.00;101197.72;698607;28;955;-56
2023/06/05 01:11:36;;;;;;;3.63;1.70;;;;;;;13.55;100.00;101200.34;696094;28;1084;-57
2023/06/05 01:12:14;;;;;;;3.90;1.92;;;;;;;13.47;100.00;101197.75;698364;28;1017;-57
2023/06/05 01:12:46;;;;;;;5.53;1.95;;;;;;;13.48;100.00;101201.28;699426;28;1064;-57
2023/06/05 01:13:18;;;;;;;3.45;1.83;;;;;;;13.52;100.00;101201.22;700731;28;4581;-55
2023/06/05 01:13:46;;;;;;;3.72;1.70;;;;;;;13.54;100.00;101193.31;700182;28;994;-57
2023/06/05 01:14:07;;;;;;;3.60;1.52;;;;;;;13.53;100.00;101188.97;700700;28;896;-57
2023/06/05 01:14:30;;;;;;;3.75;1.60;;;;;;;13.52;100.00;101195.97;697654;28;1566;-57
2023/06/05 01:14:58;;;;;;;2.95;1.73;;;;;;;13.50;100.00;101195.13;699431;28;1241;-57
2023/06/05 01:15:28;;;;;;;4.13;1.83;;;;;;;13.48;100.00;101196.03;700748;28;3776;-57
2023/06/05 01:15:52;;;;;;;3.72;1.70;;;;;;;13.43;100.00;101196.94;700640;28;1034;-57
2023/06/05 01:16:14;;;;;;;4.25;1.90;;;;;;;13.42;100.00;101200.44;698726;28;4419;-56
2023/06/05 01:16:37;;;;;;;4.00;1.90;;;;;;;13.46;100.00;101201.28;696034;28;1597;-57
2023/06/05 01:17:00;;;;;;;4.38;1.85;;;;;;;13.46;100.00;101198.66;696665;28;817;-57
2023/06/05 01:17:24;;;;;;;3.35;1.75;;;;;;;13.45;100.00;101200.41;696844;28;1698;-57
2023/06/05 01:17:47;;;;;;;3.63;2.00;;;;;;;13.45;100.00;101196.91;698287;28;983;-56
2023/06/05 01:18:09;;;;;;;4.07;1.90;;;;;;;13.44;100.00;101192.53;699237;28;1079;-57
2023/06/05 01:18:30;;;;;;;3.38;1.88;;;;;;;13.44;100.00;101197.78;698926;28;1540;-57
2023/06/05 01:18:51;;;;;;;3.30;1.90;;;;;;;13.44;100.00;101196.06;698449;28;1363;-56
2023/06/05 01:19:14;;;;;;;3.40;1.73;;;;;;;13.43;100.00;101196.03;695129;28;5413;-57
2023/06/05 01:19:36;;;;;;;4.10;1.70;;;;;;;13.43;100.00;101191.69;693217;28;1452;-57
2023/06/05 01:20:00;;;;;;;3.30;1.67;;;;;;;13.46;100.00;101198.66;694932;28;1082;-57
2023/06/05 01:20:21;;;;;;;4.60;1.70;;;;;;;13.44;100.00;101195.16;695516;28;1707;-57
2023/06/05 01:20:42;;;;;;;3.20;1.70;;;;;;;13.39;100.00;101196.97;698630;28;859;-56
2023/06/05 01:21:13;;;;;;;3.78;1.75;;;;;;;13.40;100.00;101193.44;698421;28;990;-56
2023/06/05 01:21:35;;;;;;;5.13;1.83;;;;;;;13.37;100.00;101193.47;696697;28;1497;-57
2023/06/05 01:21:56;;;;;;;5.85;2.10;;;;;;;13.36;100.00;101196.97;698803;28;884;-57
2023/06/05 01:22:16;;;;;;;4.47;2.07;;;;;;;13.35;100.00;101198.75;697302;28;4360;-57
2023/06/05 01:22:37;;;;;;;5.70;2.00;;;;;;;13.36;100.00;101191.72;700818;28;1179;-57
2023/06/05 01:22:57;;;;;;;3.40;1.90;;;;;;;13.37;100.00;101190.84;697640;28;1822;-57
2023/06/05 01:23:18;;;;;;;3.50;1.95;;;;;;;13.38;100.00;101195.22;693385;28;1487;-57
2023/06/05 01:23:44;;;;;;;3.13;1.90;;;;;;;13.36;100.00;101190.00;695167;28;1006;-57
2023/06/05 01:24:05;;;;;;;4.28;2.00;;;;;;;13.41;100.00;101192.56;692789;28;1265;-58
2023/06/05 01:24:27;;;;;;;5.07;2.00;;;;;;;13.42;100.00;101197.81;691335;28;1451;-57
2023/06/05 01:24:47;;;;;;;5.88;1.85;;;;;;;13.42;100.00;101189.06;693905;28;1969;-57
2023/06/05 01:25:09;;;;;;;4.07;1.80;;;;;;;13.41;100.00;101188.19;695906;28;4387;-57
2023/06/05 01:25:29;;;;;;;4.05;1.80;;;;;;;13.40;100.00;101194.34;694171;28;1411;-57
2023/06/05 01:25:53;;;;;;;3.47;1.70;;;;;;;13.42;100.00;101191.69;695759;28;1296;-56
2023/06/05 01:26:21;;;;;;;4.07;1.85;;;;;;;13.39;100.00;101189.97;695254;28;1255;-57
2023/06/05 01:27:12;;;;;;;4.55;1.83;;;;;;;13.41;100.00;101197.81;695385;28;1007;-57
2023/06/05 01:27:52;;;;;;;3.95;1.88;;;;;;;13.49;100.00;101188.13;696855;28;1626;-57
2023/06/05 01:28:21;;;;;;;4.90;2.10;;;;;;;13.50;100.00;101186.34;700535;28;4843;-57
2023/06/05 01:28:47;;;;;;;4.13;1.80;;;;;;;13.48;100.00;101188.13;701180;28;1593;-57
2023/06/05 01:29:11;;;;;;;4.68;2.00;;;;;;;13.47;100.00;101195.13;700710;28;955;-56
2023/06/05 01:29:52;;;;;;;4.38;1.90;;;;;;;13.44;100.00;101184.66;698897;28;1548;-57
2023/06/05 01:30:44;;;;;;;4.82;2.00;;;;;;;13.43;100.00;101190.78;700427;28;1074;-56
2023/06/05 01:31:13;;;;;;;4.13;2.10;;;;;;;13.40;100.00;101193.44;702766;28;4375;-56
2023/06/05 01:31:36;;;;;;;3.95;1.90;;;;;;;13.38;100.00;101192.59;700709;28;1833;-57
2023/06/05 01:32:06;;;;;;;4.25;2.00;;;;;;;13.39;100.00;101194.34;700244;28;1224;-57
2023/06/05 01:32:36;;;;;;;4.68;1.80;;;;;;;13.39;100.00;101197.84;696920;28;1591;-56
2023/06/05 01:33:12;;;;;;;4.80;1.80;;;;;;;13.37;100.00;101193.47;698315;28;1070;-57
2023/06/05 01:33:41;;;;;;;4.47;1.92;;;;;;;13.36;100.00;101191.72;698992;28;1491;-57
2023/06/05 01:34:07;;;;;;;4.03;1.90;;;;;;;13.37;100.00;101191.72;699274;28;4393;-56
2023/06/05 01:34:31;;;;;;;4.38;1.70;;;;;;;13.34;100.00;101185.59;698283;28;1518;-57
2023/06/05 01:34:53;;;;;;;4.43;1.70;;;;;;;13.34;100.00;101188.22;700849;28;805;-57
2023/06/05 01:35:17;;;;;;;3.85;1.80;;;;;;;13.34;100.00;101190.84;697082;28;1429;-57
2023/06/05 01:35:39;;;;;;;5.57;1.90;;;;;;;13.32;100.00;101189.97;692711;28;1352;-57
2023/06/05 01:36:04;;;;;;;3.72;1.88;;;;;;;13.32;100.00;101195.22;694794;28;1233;-57
2023/06/05 01:36:26;;;;;;;3.97;1.80;;;;;;;13.29;100.00;101189.13;691552;28;1618;-57
2023/06/05 01:36:47;;;;;;;4.20;1.75;;;;;;;13.28;100.00;101192.63;695295;28;1054;-57
2023/06/05 01:37:08;;;;;;;4.03;1.80;;;;;;;13.28;100.00;101194.41;693940;28;4402;-57
2023/06/05 01:37:36;;;;;;;4.53;1.88;;;;;;;13.27;100.00;101190.03;695602;28;1696;-56
2023/06/05 01:37:58;;;;;;;4.13;1.80;;;;;;;13.27;100.00;101195.28;695277;28;2145;-57
2023/06/05 01:38:19;;;;;;;4.47;1.98;;;;;;;13.26;100.00;101191.78;695448;28;1530;-57
2023/06/05 01:38:42;;;;;;;4.60;2.03;;;;;;;13.26;100.00;101194.41;694064;28;1827;-57
2023/06/05 01:39:04;;;;;;;4.68;2.08;;;;;;;13.24;100.00;101190.91;695026;28;1022;-56
2023/06/05 01:39:26;;;;;;;4.40;1.90;;;;;;;13.21;100.00;101193.56;696149;28;1546;-57
2023/06/05 01:39:48;;;;;;;3.55;1.73;;;;;;;13.19;100.00;101187.44;698071;28;958;-56
2023/06/05 01:40:13;;;;;;;3.25;1.98;;;;;;;13.20;100.00;101191.81;691929;28;4414;-57
2023/06/05 01:40:34;;;;;;;3.30;1.80;;;;;;;13.21;100.00;101193.56;692520;28;1489;-57
2023/06/05 01:40:55;;;;;;;3.20;1.83;;;;;;;13.21;100.00;101188.31;695524;28;868;-57
2023/06/05 01:41:17;;;;;;;4.70;2.03;;;;;;;13.19;100.00;101195.31;693724;28;1004;-57
2023/06/05 01:41:39;;;;;;;3.35;1.75;;;;;;;13.18;100.00;101190.97;695200;28;1012;-57
2023/06/05 01:42:01;;;;;;;3.50;1.75;;;;;;;13.18;100.00;101187.44;698946;28;1038;-57
2023/06/05 01:42:23;;;;;;;3.83;1.80;;;;;;;13.18;100.00;101188.34;699070;28;1788;-57
2023/06/05 01:42:44;;;;;;;3.20;1.70;;;;;;;13.18;100.00;101182.19;698240;28;1222;-56
2023/06/05 01:43:08;;;;;;;3.75;2.03;;;;;;;13.16;100.00;101187.47;694449;28;4315;-58
2023/06/05 01:43:30;;;;;;;5.50;2.10;;;;;;;13.16;100.00;101182.22;695927;28;1223;-57
2023/06/05 01:43:52;;;;;;;3.78;1.92;;;;;;;13.18;100.00;101190.06;697101;28;1199;-57
2023/06/05 01:44:15;;;;;;;3.65;1.73;;;;;;;13.15;100.00;101184.84;694941;28;931;-57
2023/06/05 01:44:36;;;;;;;3.60;1.73;;;;;;;13.12;100.00;101183.13;693408;28;2001;-56
2023/06/05 01:44:56;;;;;;;3.78;1.70;;;;;;;13.11;100.00;101186.63;696670;28;1107;-57
2023/06/05 01:45:18;;;;;;;3.57;1.80;;;;;;;13.07;100.00;101182.28;696156;28;1280;-57